sensor_id;sensor_type;location;lat;lon;timestamp;P1;durP1;ratioP1;P2;durP2;ratioP2
68886;SDS011;55925;51.764;6.402;2023-09-08T00:02:01;10.77;;;5.70;;
68886;SDS011;55925;51.764;6.402;2023-09-08T00:04:27;9.90;;;5.38;;
68886;SDS011;55925;51.764;6.402;2023-09-08T00:06:53;10.45;;;5.13;;
68886;SDS011;55925;51.764;6.402;2023-09-08T00:09:19;10.52;;;5.43;;
68886;SDS011;55925;51.764;6.402;2023-09-08T00:11:45;10.93;;;5.63;;
68886;SDS011;55925;51.764;6.402;2023-09-08T00:14:11;11.10;;;5.28;;
68886;SDS011;55925;51.764;6.402;2023-09-08T00:16:37;9.23;;;4.90;;
68886;SDS011;55925;51.764;6.402;2023-09-08T00:19:07;8.70;;;5.05;;
68886;SDS011;55925;51.764;6.402;2023-09-08T00:21:33;8.82;;;5.13;;
68886;SDS011;55925;51.764;6.402;2023-09-08T00:23:59;9.05;;;5.10;;
68886;SDS011;55925;51.764;6.402;2023-09-08T00:26:26;12.05;;;5.47;;
68886;SDS011;55925;51.764;6.402;2023-09-08T00:28:52;12.35;;;5.97;;
68886;SDS011;55925;51.764;6.402;2023-09-08T00:31:18;8.85;;;5.38;;
68886;SDS011;55925;51.764;6.402;2023-09-08T00:33:44;10.77;;;5.25;;
68886;SDS011;55925;51.764;6.402;2023-09-08T00:36:10;9.68;;;5.20;;
68886;SDS011;55925;51.764;6.402;2023-09-08T00:38:36;11.43;;;5.53;;
68886;SDS011;55925;51.764;6.402;2023-09-08T00:41:02;10.10;;;5.68;;
68886;SDS011;55925;51.764;6.402;2023-09-08T00:43:28;9.27;;;5.03;;
68886;SDS011;55925;51.764;6.402;2023-09-08T00:45:54;9.50;;;5.55;;
68886;SDS011;55925;51.764;6.402;2023-09-08T00:48:21;10.88;;;5.93;;
68886;SDS011;55925;51.764;6.402;2023-09-08T00:50:48;10.20;;;5.50;;
68886;SDS011;55925;51.764;6.402;2023-09-08T00:53:14;9.57;;;5.43;;
68886;SDS011;55925;51.764;6.402;2023-09-08T00:55:40;9.55;;;5.50;;
68886;SDS011;55925;51.764;6.402;2023-09-08T00:58:06;9.95;;;4.90;;
68886;SDS011;55925;51.764;6.402;2023-09-08T01:00:32;10.05;;;5.47;;
68886;SDS011;55925;51.764;6.402;2023-09-08T01:02:59;9.70;;;5.18;;
68886;SDS011;55925;51.764;6.402;2023-09-08T01:05:25;9.68;;;5.22;;
68886;SDS011;55925;51.764;6.402;2023-09-08T01:07:51;9.18;;;5.50;;
68886;SDS011;55925;51.764;6.402;2023-09-08T01:10:18;10.73;;;5.80;;
68886;SDS011;55925;51.764;6.402;2023-09-08T01:12:44;11.48;;;5.78;;
68886;SDS011;55925;51.764;6.402;2023-09-08T01:15:10;9.55;;;5.90;;
68886;SDS011;55925;51.764;6.402;2023-09-08T01:17:37;11.07;;;5.78;;
68886;SDS011;55925;51.764;6.402;2023-09-08T01:27:33;11.02;;;6.03;;
68886;SDS011;55925;51.764;6.402;2023-09-08T01:30:01;9.27;;;5.22;;
68886;SDS011;55925;51.764;6.402;2023-09-08T01:32:27;10.50;;;5.47;;
68886;SDS011;55925;51.764;6.402;2023-09-08T01:34:54;10.15;;;5.53;;
68886;SDS011;55925;51.764;6.402;2023-09-08T01:37:22;12.80;;;5.57;;
68886;SDS011;55925;51.764;6.402;2023-09-08T01:39:48;10.93;;;5.75;;
68886;SDS011;55925;51.764;6.402;2023-09-08T01:42:14;12.75;;;6.18;;
68886;SDS011;55925;51.764;6.402;2023-09-08T01:44:40;9.82;;;5.53;;
68886;SDS011;55925;51.764;6.402;2023-09-08T01:47:06;10.57;;;5.47;;
68886;SDS011;55925;51.764;6.402;2023-09-08T01:49:32;10.65;;;5.80;;
68886;SDS011;55925;51.764;6.402;2023-09-08T01:51:58;10.65;;;5.60;;
68886;SDS011;55925;51.764;6.402;2023-09-08T01:54:24;10.68;;;5.15;;
68886;SDS011;55925;51.764;6.402;2023-09-08T01:56:50;11.10;;;5.85;;
68886;SDS011;55925;51.764;6.402;2023-09-08T01:59:16;11.05;;;6.05;;
68886;SDS011;55925;51.764;6.402;2023-09-08T02:01:42;11.18;;;6.43;;
68886;SDS011;55925;51.764;6.402;2023-09-08T02:04:08;11.23;;;6.63;;
68886;SDS011;55925;51.764;6.402;2023-09-08T02:06:34;11.07;;;5.80;;
68886;SDS011;55925;51.764;6.402;2023-09-08T02:09:00;10.65;;;6.00;;
68886;SDS011;55925;51.764;6.402;2023-09-08T02:11:26;11.23;;;5.72;;
68886;SDS011;55925;51.764;6.402;2023-09-08T02:13:52;12.25;;;6.45;;
68886;SDS011;55925;51.764;6.402;2023-09-08T02:16:18;12.27;;;7.32;;
68886;SDS011;55925;51.764;6.402;2023-09-08T02:18:44;12.80;;;6.55;;
68886;SDS011;55925;51.764;6.402;2023-09-08T02:21:11;15.65;;;7.60;;
68886;SDS011;55925;51.764;6.402;2023-09-08T02:23:37;13.13;;;7.10;;
68886;SDS011;55925;51.764;6.402;2023-09-08T02:26:03;12.63;;;6.88;;
68886;SDS011;55925;51.764;6.402;2023-09-08T02:28:29;13.70;;;7.45;;
68886;SDS011;55925;51.764;6.402;2023-09-08T02:30:56;11.88;;;6.43;;
68886;SDS011;55925;51.764;6.402;2023-09-08T02:33:22;13.93;;;7.50;;
68886;SDS011;55925;51.764;6.402;2023-09-08T02:35:48;14.77;;;7.70;;
68886;SDS011;55925;51.764;6.402;2023-09-08T02:38:14;14.27;;;7.40;;
68886;SDS011;55925;51.764;6.402;2023-09-08T02:40:40;13.55;;;7.88;;
68886;SDS011;55925;51.764;6.402;2023-09-08T02:43:06;16.27;;;7.25;;
68886;SDS011;55925;51.764;6.402;2023-09-08T02:45:32;14.57;;;7.93;;
68886;SDS011;55925;51.764;6.402;2023-09-08T02:47:58;14.43;;;7.78;;
68886;SDS011;55925;51.764;6.402;2023-09-08T02:50:24;22.52;;;7.72;;
68886;SDS011;55925;51.764;6.402;2023-09-08T02:52:50;13.35;;;7.72;;
68886;SDS011;55925;51.764;6.402;2023-09-08T02:55:16;11.10;;;6.93;;
68886;SDS011;55925;51.764;6.402;2023-09-08T02:57:42;16.55;;;7.68;;
68886;SDS011;55925;51.764;6.402;2023-09-08T03:00:08;14.38;;;7.47;;
68886;SDS011;55925;51.764;6.402;2023-09-08T03:02:34;14.57;;;8.02;;
68886;SDS011;55925;51.764;6.402;2023-09-08T03:05:00;14.40;;;7.57;;
68886;SDS011;55925;51.764;6.402;2023-09-08T03:07:27;14.10;;;8.23;;
68886;SDS011;55925;51.764;6.402;2023-09-08T03:09:53;14.02;;;7.65;;
68886;SDS011;55925;51.764;6.402;2023-09-08T03:12:19;14.00;;;7.68;;
68886;SDS011;55925;51.764;6.402;2023-09-08T03:14:45;15.13;;;8.00;;
68886;SDS011;55925;51.764;6.402;2023-09-08T03:17:12;14.02;;;8.10;;
68886;SDS011;55925;51.764;6.402;2023-09-08T03:19:38;14.68;;;8.52;;
68886;SDS011;55925;51.764;6.402;2023-09-08T03:22:04;17.10;;;7.95;;
68886;SDS011;55925;51.764;6.402;2023-09-08T03:24:30;13.45;;;8.10;;
68886;SDS011;55925;51.764;6.402;2023-09-08T03:26:56;15.32;;;8.45;;
68886;SDS011;55925;51.764;6.402;2023-09-08T03:29:23;13.50;;;7.28;;
68886;SDS011;55925;51.764;6.402;2023-09-08T03:31:49;12.98;;;7.22;;
68886;SDS011;55925;51.764;6.402;2023-09-08T03:34:15;15.18;;;7.88;;
68886;SDS011;55925;51.764;6.402;2023-09-08T03:36:42;12.43;;;6.65;;
68886;SDS011;55925;51.764;6.402;2023-09-08T03:39:08;15.07;;;7.05;;
68886;SDS011;55925;51.764;6.402;2023-09-08T03:41:34;11.65;;;7.13;;
68886;SDS011;55925;51.764;6.402;2023-09-08T03:44:01;13.80;;;7.90;;
68886;SDS011;55925;51.764;6.402;2023-09-08T03:46:27;13.05;;;6.78;;
68886;SDS011;55925;51.764;6.402;2023-09-08T03:48:53;12.75;;;7.35;;
68886;SDS011;55925;51.764;6.402;2023-09-08T03:51:23;12.48;;;6.38;;
68886;SDS011;55925;51.764;6.402;2023-09-08T03:53:50;13.10;;;7.50;;
68886;SDS011;55925;51.764;6.402;2023-09-08T03:56:16;14.15;;;7.05;;
68886;SDS011;55925;51.764;6.402;2023-09-08T03:58:42;15.13;;;7.60;;
68886;SDS011;55925;51.764;6.402;2023-09-08T04:01:08;12.55;;;6.90;;
68886;SDS011;55925;51.764;6.402;2023-09-08T04:03:34;11.82;;;6.72;;
68886;SDS011;55925;51.764;6.402;2023-09-08T04:06:00;15.98;;;7.97;;
68886;SDS011;55925;51.764;6.402;2023-09-08T04:08:26;13.65;;;7.53;;
68886;SDS011;55925;51.764;6.402;2023-09-08T04:10:52;13.93;;;7.53;;
68886;SDS011;55925;51.764;6.402;2023-09-08T04:13:18;12.82;;;7.13;;
68886;SDS011;55925;51.764;6.402;2023-09-08T04:15:44;13.52;;;7.18;;
68886;SDS011;55925;51.764;6.402;2023-09-08T04:18:10;14.45;;;7.07;;
68886;SDS011;55925;51.764;6.402;2023-09-08T04:20:36;13.55;;;7.25;;
68886;SDS011;55925;51.764;6.402;2023-09-08T04:23:02;13.23;;;7.13;;
68886;SDS011;55925;51.764;6.402;2023-09-08T04:25:28;14.57;;;7.55;;
68886;SDS011;55925;51.764;6.402;2023-09-08T04:27:54;15.18;;;8.32;;
68886;SDS011;55925;51.764;6.402;2023-09-08T04:30:20;13.65;;;7.32;;
68886;SDS011;55925;51.764;6.402;2023-09-08T04:32:46;14.95;;;7.13;;
68886;SDS011;55925;51.764;6.402;2023-09-08T04:35:12;14.25;;;8.77;;
68886;SDS011;55925;51.764;6.402;2023-09-08T04:37:38;14.55;;;8.02;;
68886;SDS011;55925;51.764;6.402;2023-09-08T04:40:05;12.95;;;7.05;;
68886;SDS011;55925;51.764;6.402;2023-09-08T04:42:32;12.70;;;6.85;;
68886;SDS011;55925;51.764;6.402;2023-09-08T04:44:58;14.13;;;7.60;;
68886;SDS011;55925;51.764;6.402;2023-09-08T04:47:24;12.63;;;7.18;;
68886;SDS011;55925;51.764;6.402;2023-09-08T04:49:50;13.32;;;7.22;;
68886;SDS011;55925;51.764;6.402;2023-09-08T04:52:16;16.33;;;8.10;;
68886;SDS011;55925;51.764;6.402;2023-09-08T04:54:42;17.25;;;8.27;;
68886;SDS011;55925;51.764;6.402;2023-09-08T04:57:08;19.30;;;8.45;;
68886;SDS011;55925;51.764;6.402;2023-09-08T04:59:34;16.10;;;7.90;;
68886;SDS011;55925;51.764;6.402;2023-09-08T05:02:02;15.15;;;8.65;;
68886;SDS011;55925;51.764;6.402;2023-09-08T05:04:28;14.55;;;8.30;;
68886;SDS011;55925;51.764;6.402;2023-09-08T05:06:54;16.25;;;7.82;;
68886;SDS011;55925;51.764;6.402;2023-09-08T05:09:20;15.82;;;8.05;;
68886;SDS011;55925;51.764;6.402;2023-09-08T05:11:46;15.00;;;8.00;;
68886;SDS011;55925;51.764;6.402;2023-09-08T05:14:12;18.42;;;8.38;;
68886;SDS011;55925;51.764;6.402;2023-09-08T05:16:38;15.23;;;7.82;;
68886;SDS011;55925;51.764;6.402;2023-09-08T05:19:10;16.45;;;8.27;;
68886;SDS011;55925;51.764;6.402;2023-09-08T05:21:37;17.02;;;8.07;;
68886;SDS011;55925;51.764;6.402;2023-09-08T05:24:04;15.68;;;8.50;;
68886;SDS011;55925;51.764;6.402;2023-09-08T05:26:31;17.77;;;9.15;;
68886;SDS011;55925;51.764;6.402;2023-09-08T05:28:57;18.27;;;9.05;;
68886;SDS011;55925;51.764;6.402;2023-09-08T05:31:23;14.05;;;8.02;;
68886;SDS011;55925;51.764;6.402;2023-09-08T05:33:49;16.50;;;7.72;;
68886;SDS011;55925;51.764;6.402;2023-09-08T05:36:15;14.40;;;8.25;;
68886;SDS011;55925;51.764;6.402;2023-09-08T05:38:41;13.43;;;7.57;;
68886;SDS011;55925;51.764;6.402;2023-09-08T05:41:07;15.95;;;8.98;;
68886;SDS011;55925;51.764;6.402;2023-09-08T05:43:33;15.88;;;8.20;;
68886;SDS011;55925;51.764;6.402;2023-09-08T05:45:59;15.75;;;8.48;;
68886;SDS011;55925;51.764;6.402;2023-09-08T05:48:25;18.20;;;9.27;;
68886;SDS011;55925;51.764;6.402;2023-09-08T05:50:52;19.00;;;8.80;;
68886;SDS011;55925;51.764;6.402;2023-09-08T05:53:19;15.85;;;8.98;;
68886;SDS011;55925;51.764;6.402;2023-09-08T05:55:44;16.23;;;9.05;;
68886;SDS011;55925;51.764;6.402;2023-09-08T05:58:11;16.25;;;8.77;;
68886;SDS011;55925;51.764;6.402;2023-09-08T06:00:37;16.35;;;9.18;;
68886;SDS011;55925;51.764;6.402;2023-09-08T06:03:03;16.52;;;9.23;;
68886;SDS011;55925;51.764;6.402;2023-09-08T06:05:29;14.98;;;8.15;;
68886;SDS011;55925;51.764;6.402;2023-09-08T06:07:55;18.05;;;8.82;;
68886;SDS011;55925;51.764;6.402;2023-09-08T06:10:21;17.10;;;8.75;;
68886;SDS011;55925;51.764;6.402;2023-09-08T06:12:47;18.08;;;9.70;;
68886;SDS011;55925;51.764;6.402;2023-09-08T06:15:15;15.85;;;8.35;;
68886;SDS011;55925;51.764;6.402;2023-09-08T06:17:42;20.50;;;10.15;;
68886;SDS011;55925;51.764;6.402;2023-09-08T06:20:08;18.80;;;10.43;;
68886;SDS011;55925;51.764;6.402;2023-09-08T06:22:34;18.77;;;9.40;;
68886;SDS011;55925;51.764;6.402;2023-09-08T06:25:00;19.35;;;10.27;;
68886;SDS011;55925;51.764;6.402;2023-09-08T06:27:26;18.00;;;9.18;;
68886;SDS011;55925;51.764;6.402;2023-09-08T06:29:52;16.50;;;8.68;;
68886;SDS011;55925;51.764;6.402;2023-09-08T06:32:18;19.98;;;9.52;;
68886;SDS011;55925;51.764;6.402;2023-09-08T06:34:44;17.65;;;9.60;;
68886;SDS011;55925;51.764;6.402;2023-09-08T06:37:10;17.63;;;9.18;;
68886;SDS011;55925;51.764;6.402;2023-09-08T06:39:37;17.10;;;9.50;;
68886;SDS011;55925;51.764;6.402;2023-09-08T06:42:03;17.45;;;9.75;;
68886;SDS011;55925;51.764;6.402;2023-09-08T06:44:29;16.38;;;8.63;;
68886;SDS011;55925;51.764;6.402;2023-09-08T06:46:55;18.67;;;9.65;;
68886;SDS011;55925;51.764;6.402;2023-09-08T06:49:21;18.38;;;10.73;;
68886;SDS011;55925;51.764;6.402;2023-09-08T06:51:47;15.50;;;8.98;;
68886;SDS011;55925;51.764;6.402;2023-09-08T06:54:14;18.30;;;9.27;;
68886;SDS011;55925;51.764;6.402;2023-09-08T06:56:40;16.02;;;9.73;;
68886;SDS011;55925;51.764;6.402;2023-09-08T06:59:06;14.38;;;8.30;;
68886;SDS011;55925;51.764;6.402;2023-09-08T07:01:32;15.25;;;8.73;;
68886;SDS011;55925;51.764;6.402;2023-09-08T07:03:58;16.92;;;8.82;;
68886;SDS011;55925;51.764;6.402;2023-09-08T07:06:24;15.57;;;8.18;;
68886;SDS011;55925;51.764;6.402;2023-09-08T07:08:50;17.58;;;8.77;;
68886;SDS011;55925;51.764;6.402;2023-09-08T07:11:16;15.68;;;8.45;;
68886;SDS011;55925;51.764;6.402;2023-09-08T07:13:42;17.08;;;8.35;;
68886;SDS011;55925;51.764;6.402;2023-09-08T07:16:08;15.35;;;9.02;;
68886;SDS011;55925;51.764;6.402;2023-09-08T07:18:34;13.88;;;8.13;;
68886;SDS011;55925;51.764;6.402;2023-09-08T07:21:02;17.02;;;8.80;;
68886;SDS011;55925;51.764;6.402;2023-09-08T07:23:28;13.77;;;7.50;;
68886;SDS011;55925;51.764;6.402;2023-09-08T07:25:54;14.05;;;7.97;;
68886;SDS011;55925;51.764;6.402;2023-09-08T07:28:20;14.18;;;7.80;;
68886;SDS011;55925;51.764;6.402;2023-09-08T07:30:46;13.10;;;7.40;;
68886;SDS011;55925;51.764;6.402;2023-09-08T07:33:12;14.40;;;8.10;;
68886;SDS011;55925;51.764;6.402;2023-09-08T07:35:39;15.38;;;7.20;;
68886;SDS011;55925;51.764;6.402;2023-09-08T07:38:05;13.38;;;7.63;;
68886;SDS011;55925;51.764;6.402;2023-09-08T07:40:32;14.02;;;7.40;;
68886;SDS011;55925;51.764;6.402;2023-09-08T07:42:58;13.70;;;7.50;;
68886;SDS011;55925;51.764;6.402;2023-09-08T07:45:24;14.10;;;8.23;;
68886;SDS011;55925;51.764;6.402;2023-09-08T07:47:50;15.48;;;7.90;;
68886;SDS011;55925;51.764;6.402;2023-09-08T07:50:20;13.20;;;7.22;;
68886;SDS011;55925;51.764;6.402;2023-09-08T07:52:50;14.63;;;7.85;;
68886;SDS011;55925;51.764;6.402;2023-09-08T07:55:17;13.38;;;7.45;;
68886;SDS011;55925;51.764;6.402;2023-09-08T07:57:44;15.85;;;8.25;;
68886;SDS011;55925;51.764;6.402;2023-09-08T08:00:11;12.00;;;7.22;;
68886;SDS011;55925;51.764;6.402;2023-09-08T08:02:47;16.45;;;7.85;;
68886;SDS011;55925;51.764;6.402;2023-09-08T08:05:14;13.98;;;7.13;;
68886;SDS011;55925;51.764;6.402;2023-09-08T08:07:40;15.52;;;7.53;;
68886;SDS011;55925;51.764;6.402;2023-09-08T08:10:07;16.25;;;6.88;;
68886;SDS011;55925;51.764;6.402;2023-09-08T08:12:33;13.80;;;7.13;;
68886;SDS011;55925;51.764;6.402;2023-09-08T08:14:59;12.63;;;6.72;;
68886;SDS011;55925;51.764;6.402;2023-09-08T08:17:25;16.80;;;7.15;;
68886;SDS011;55925;51.764;6.402;2023-09-08T08:19:53;16.05;;;6.93;;
68886;SDS011;55925;51.764;6.402;2023-09-08T08:22:19;12.02;;;6.65;;
68886;SDS011;55925;51.764;6.402;2023-09-08T08:24:45;14.90;;;7.20;;
68886;SDS011;55925;51.764;6.402;2023-09-08T08:27:11;13.57;;;7.15;;
68886;SDS011;55925;51.764;6.402;2023-09-08T08:29:38;13.40;;;7.13;;
68886;SDS011;55925;51.764;6.402;2023-09-08T08:32:05;16.33;;;6.82;;
68886;SDS011;55925;51.764;6.402;2023-09-08T08:34:31;16.50;;;6.85;;
68886;SDS011;55925;51.764;6.402;2023-09-08T08:36:57;14.18;;;7.75;;
68886;SDS011;55925;51.764;6.402;2023-09-08T08:39:23;12.80;;;6.80;;
68886;SDS011;55925;51.764;6.402;2023-09-08T08:41:49;11.57;;;6.68;;
68886;SDS011;55925;51.764;6.402;2023-09-08T08:44:15;13.30;;;7.13;;
68886;SDS011;55925;51.764;6.402;2023-09-08T08:46:43;11.20;;;7.13;;
68886;SDS011;55925;51.764;6.402;2023-09-08T08:49:10;12.88;;;6.88;;
68886;SDS011;55925;51.764;6.402;2023-09-08T08:51:37;13.05;;;7.32;;
68886;SDS011;55925;51.764;6.402;2023-09-08T08:54:04;13.23;;;6.93;;
68886;SDS011;55925;51.764;6.402;2023-09-08T08:56:35;10.82;;;6.32;;
68886;SDS011;55925;51.764;6.402;2023-09-08T08:59:01;12.25;;;6.72;;
68886;SDS011;55925;51.764;6.402;2023-09-08T09:01:28;12.60;;;6.72;;
68886;SDS011;55925;51.764;6.402;2023-09-08T09:03:54;11.35;;;5.93;;
68886;SDS011;55925;51.764;6.402;2023-09-08T09:06:21;15.32;;;6.55;;
68886;SDS011;55925;51.764;6.402;2023-09-08T09:08:47;9.13;;;5.82;;
68886;SDS011;55925;51.764;6.402;2023-09-08T09:11:13;17.77;;;6.80;;
68886;SDS011;55925;51.764;6.402;2023-09-08T09:13:39;11.52;;;5.93;;
68886;SDS011;55925;51.764;6.402;2023-09-08T09:16:05;10.88;;;6.35;;
68886;SDS011;55925;51.764;6.402;2023-09-08T09:18:41;10.77;;;5.60;;
68886;SDS011;55925;51.764;6.402;2023-09-08T09:21:19;10.32;;;6.22;;
68886;SDS011;55925;51.764;6.402;2023-09-08T09:23:45;11.73;;;6.32;;
68886;SDS011;55925;51.764;6.402;2023-09-08T09:26:11;12.07;;;5.45;;
68886;SDS011;55925;51.764;6.402;2023-09-08T09:31:14;11.90;;;5.60;;
68886;SDS011;55925;51.764;6.402;2023-09-08T09:33:40;9.90;;;5.05;;
68886;SDS011;55925;51.764;6.402;2023-09-08T09:36:06;10.68;;;5.38;;
68886;SDS011;55925;51.764;6.402;2023-09-08T09:38:34;12.27;;;5.80;;
68886;SDS011;55925;51.764;6.402;2023-09-08T09:41:00;9.82;;;5.43;;
68886;SDS011;55925;51.764;6.402;2023-09-08T09:43:27;8.43;;;5.22;;
68886;SDS011;55925;51.764;6.402;2023-09-08T09:45:54;8.60;;;5.53;;
68886;SDS011;55925;51.764;6.402;2023-09-08T09:48:21;9.88;;;5.60;;
68886;SDS011;55925;51.764;6.402;2023-09-08T09:50:48;9.90;;;5.72;;
68886;SDS011;55925;51.764;6.402;2023-09-08T09:53:15;10.43;;;5.18;;
68886;SDS011;55925;51.764;6.402;2023-09-08T09:55:42;10.05;;;5.57;;
68886;SDS011;55925;51.764;6.402;2023-09-08T09:58:08;11.43;;;5.32;;
68886;SDS011;55925;51.764;6.402;2023-09-08T10:00:35;11.63;;;6.20;;
68886;SDS011;55925;51.764;6.402;2023-09-08T10:03:02;7.15;;;4.72;;
68886;SDS011;55925;51.764;6.402;2023-09-08T10:05:29;8.10;;;4.22;;
68886;SDS011;55925;51.764;6.402;2023-09-08T10:07:55;9.02;;;4.97;;
68886;SDS011;55925;51.764;6.402;2023-09-08T10:10:21;10.02;;;5.20;;
68886;SDS011;55925;51.764;6.402;2023-09-08T10:12:57;10.27;;;5.20;;
68886;SDS011;55925;51.764;6.402;2023-09-08T10:15:27;12.05;;;5.75;;
68886;SDS011;55925;51.764;6.402;2023-09-08T10:17:54;10.07;;;5.10;;
68886;SDS011;55925;51.764;6.402;2023-09-08T10:20:22;9.23;;;5.03;;
68886;SDS011;55925;51.764;6.402;2023-09-08T10:22:50;12.18;;;5.85;;
68886;SDS011;55925;51.764;6.402;2023-09-08T10:25:18;10.45;;;5.10;;
68886;SDS011;55925;51.764;6.402;2023-09-08T10:27:46;11.73;;;5.65;;
68886;SDS011;55925;51.764;6.402;2023-09-08T10:30:12;8.98;;;5.13;;
68886;SDS011;55925;51.764;6.402;2023-09-08T10:32:39;10.50;;;5.97;;
68886;SDS011;55925;51.764;6.402;2023-09-08T10:35:06;9.43;;;5.13;;
68886;SDS011;55925;51.764;6.402;2023-09-08T10:37:33;10.20;;;5.60;;
68886;SDS011;55925;51.764;6.402;2023-09-08T10:42:43;7.85;;;5.03;;
68886;SDS011;55925;51.764;6.402;2023-09-08T10:45:16;10.25;;;5.55;;
68886;SDS011;55925;51.764;6.402;2023-09-08T10:50:18;8.85;;;5.53;;
68886;SDS011;55925;51.764;6.402;2023-09-08T10:52:45;8.90;;;5.00;;
68886;SDS011;55925;51.764;6.402;2023-09-08T10:55:12;8.55;;;5.03;;
68886;SDS011;55925;51.764;6.402;2023-09-08T10:57:38;9.00;;;4.78;;
68886;SDS011;55925;51.764;6.402;2023-09-08T11:00:10;7.97;;;4.82;;
68886;SDS011;55925;51.764;6.402;2023-09-08T11:02:47;8.63;;;4.70;;
68886;SDS011;55925;51.764;6.402;2023-09-08T11:05:15;7.22;;;4.90;;
68886;SDS011;55925;51.764;6.402;2023-09-08T11:07:44;8.68;;;4.97;;
68886;SDS011;55925;51.764;6.402;2023-09-08T11:10:11;7.57;;;4.28;;
68886;SDS011;55925;51.764;6.402;2023-09-08T11:12:37;7.95;;;4.18;;
68886;SDS011;55925;51.764;6.402;2023-09-08T11:15:05;9.57;;;4.88;;
68886;SDS011;55925;51.764;6.402;2023-09-08T11:17:32;8.25;;;5.22;;
68886;SDS011;55925;51.764;6.402;2023-09-08T11:20:00;8.27;;;4.65;;
68886;SDS011;55925;51.764;6.402;2023-09-08T11:22:26;11.05;;;5.13;;
68886;SDS011;55925;51.764;6.402;2023-09-08T11:24:53;9.25;;;5.25;;
68886;SDS011;55925;51.764;6.402;2023-09-08T11:27:21;9.57;;;4.30;;
68886;SDS011;55925;51.764;6.402;2023-09-08T11:29:48;7.88;;;4.72;;
68886;SDS011;55925;51.764;6.402;2023-09-08T11:32:14;7.85;;;4.72;;
68886;SDS011;55925;51.764;6.402;2023-09-08T11:34:40;11.32;;;4.57;;
68886;SDS011;55925;51.764;6.402;2023-09-08T11:37:10;8.85;;;4.85;;
68886;SDS011;55925;51.764;6.402;2023-09-08T11:39:38;7.10;;;4.63;;
68886;SDS011;55925;51.764;6.402;2023-09-08T11:42:05;6.88;;;4.63;;
68886;SDS011;55925;51.764;6.402;2023-09-08T11:44:31;7.97;;;4.57;;
68886;SDS011;55925;51.764;6.402;2023-09-08T11:46:57;9.95;;;5.43;;
68886;SDS011;55925;51.764;6.402;2023-09-08T11:49:24;9.45;;;4.53;;
68886;SDS011;55925;51.764;6.402;2023-09-08T11:51:50;9.82;;;4.55;;
68886;SDS011;55925;51.764;6.402;2023-09-08T11:54:16;10.20;;;4.72;;
68886;SDS011;55925;51.764;6.402;2023-09-08T11:56:43;8.52;;;4.38;;
68886;SDS011;55925;51.764;6.402;2023-09-08T11:59:10;8.10;;;4.47;;
68886;SDS011;55925;51.764;6.402;2023-09-08T12:01:37;8.95;;;4.55;;
68886;SDS011;55925;51.764;6.402;2023-09-08T12:04:03;6.75;;;4.57;;
68886;SDS011;55925;51.764;6.402;2023-09-08T12:06:29;9.27;;;5.05;;
68886;SDS011;55925;51.764;6.402;2023-09-08T12:08:55;9.93;;;4.97;;
68886;SDS011;55925;51.764;6.402;2023-09-08T12:11:24;9.20;;;4.47;;
68886;SDS011;55925;51.764;6.402;2023-09-08T12:13:50;8.57;;;4.82;;
68886;SDS011;55925;51.764;6.402;2023-09-08T12:16:19;11.95;;;5.15;;
68886;SDS011;55925;51.764;6.402;2023-09-08T12:18:47;8.80;;;5.15;;
68886;SDS011;55925;51.764;6.402;2023-09-08T12:21:13;8.27;;;4.82;;
68886;SDS011;55925;51.764;6.402;2023-09-08T12:23:49;7.85;;;4.78;;
68886;SDS011;55925;51.764;6.402;2023-09-08T12:26:15;9.32;;;4.70;;
68886;SDS011;55925;51.764;6.402;2023-09-08T12:28:41;8.20;;;4.75;;
68886;SDS011;55925;51.764;6.402;2023-09-08T12:31:14;10.23;;;5.60;;
68886;SDS011;55925;51.764;6.402;2023-09-08T12:33:41;9.07;;;5.13;;
68886;SDS011;55925;51.764;6.402;2023-09-08T12:36:15;7.75;;;4.70;;
68886;SDS011;55925;51.764;6.402;2023-09-08T12:38:48;7.88;;;4.47;;
68886;SDS011;55925;51.764;6.402;2023-09-08T12:41:15;8.07;;;4.95;;
68886;SDS011;55925;51.764;6.402;2023-09-08T12:43:41;9.35;;;6.10;;
68886;SDS011;55925;51.764;6.402;2023-09-08T12:46:07;7.75;;;4.60;;
68886;SDS011;55925;51.764;6.402;2023-09-08T12:48:33;8.73;;;5.05;;
68886;SDS011;55925;51.764;6.402;2023-09-08T12:50:59;7.50;;;4.80;;
68886;SDS011;55925;51.764;6.402;2023-09-08T12:53:26;8.82;;;5.30;;
68886;SDS011;55925;51.764;6.402;2023-09-08T12:55:52;7.68;;;4.35;;
68886;SDS011;55925;51.764;6.402;2023-09-08T12:58:18;8.25;;;4.80;;
68886;SDS011;55925;51.764;6.402;2023-09-08T13:00:44;8.45;;;4.93;;
68886;SDS011;55925;51.764;6.402;2023-09-08T13:03:11;8.13;;;4.78;;
68886;SDS011;55925;51.764;6.402;2023-09-08T13:05:37;8.68;;;5.03;;
68886;SDS011;55925;51.764;6.402;2023-09-08T13:08:03;8.85;;;5.10;;
68886;SDS011;55925;51.764;6.402;2023-09-08T13:10:30;13.52;;;5.70;;
68886;SDS011;55925;51.764;6.402;2023-09-08T13:12:56;8.00;;;4.70;;
68886;SDS011;55925;51.764;6.402;2023-09-08T13:15:22;8.77;;;5.28;;
68886;SDS011;55925;51.764;6.402;2023-09-08T13:17:48;9.93;;;5.43;;
68886;SDS011;55925;51.764;6.402;2023-09-08T13:20:14;10.05;;;5.43;;
68886;SDS011;55925;51.764;6.402;2023-09-08T13:22:40;10.15;;;5.25;;
68886;SDS011;55925;51.764;6.402;2023-09-08T13:25:07;7.00;;;4.53;;
68886;SDS011;55925;51.764;6.402;2023-09-08T13:27:33;9.18;;;5.20;;
68886;SDS011;55925;51.764;6.402;2023-09-08T13:30:08;9.30;;;4.65;;
68886;SDS011;55925;51.764;6.402;2023-09-08T13:32:35;7.28;;;4.75;;
68886;SDS011;55925;51.764;6.402;2023-09-08T13:35:01;8.75;;;5.20;;
68886;SDS011;55925;51.764;6.402;2023-09-08T13:37:27;8.88;;;5.00;;
68886;SDS011;55925;51.764;6.402;2023-09-08T13:39:55;7.57;;;4.93;;
68886;SDS011;55925;51.764;6.402;2023-09-08T13:42:21;7.45;;;4.75;;
68886;SDS011;55925;51.764;6.402;2023-09-08T13:44:47;8.60;;;5.13;;
68886;SDS011;55925;51.764;6.402;2023-09-08T13:47:14;7.60;;;5.15;;
68886;SDS011;55925;51.764;6.402;2023-09-08T13:49:40;7.80;;;5.13;;
68886;SDS011;55925;51.764;6.402;2023-09-08T13:52:06;8.05;;;4.53;;
68886;SDS011;55925;51.764;6.402;2023-09-08T13:54:32;6.97;;;4.20;;
68886;SDS011;55925;51.764;6.402;2023-09-08T13:57:02;8.57;;;5.10;;
68886;SDS011;55925;51.764;6.402;2023-09-08T13:59:29;8.18;;;5.20;;
68886;SDS011;55925;51.764;6.402;2023-09-08T14:01:55;10.23;;;4.95;;
68886;SDS011;55925;51.764;6.402;2023-09-08T14:04:26;8.93;;;4.88;;
68886;SDS011;55925;51.764;6.402;2023-09-08T14:06:52;8.20;;;4.60;;
68886;SDS011;55925;51.764;6.402;2023-09-08T14:09:18;9.65;;;4.53;;
68886;SDS011;55925;51.764;6.402;2023-09-08T14:11:44;7.15;;;4.32;;
68886;SDS011;55925;51.764;6.402;2023-09-08T14:14:10;8.10;;;4.82;;
68886;SDS011;55925;51.764;6.402;2023-09-08T14:16:36;7.97;;;4.50;;
68886;SDS011;55925;51.764;6.402;2023-09-08T14:19:03;9.25;;;4.68;;
68886;SDS011;55925;51.764;6.402;2023-09-08T14:21:30;7.32;;;4.00;;
68886;SDS011;55925;51.764;6.402;2023-09-08T14:23:57;7.47;;;4.35;;
68886;SDS011;55925;51.764;6.402;2023-09-08T14:26:23;6.60;;;4.20;;
68886;SDS011;55925;51.764;6.402;2023-09-08T14:28:50;10.32;;;4.80;;
68886;SDS011;55925;51.764;6.402;2023-09-08T14:31:18;8.55;;;4.28;;
68886;SDS011;55925;51.764;6.402;2023-09-08T14:33:44;7.40;;;4.35;;
68886;SDS011;55925;51.764;6.402;2023-09-08T14:36:10;6.88;;;4.25;;
68886;SDS011;55925;51.764;6.402;2023-09-08T14:38:36;7.88;;;4.75;;
68886;SDS011;55925;51.764;6.402;2023-09-08T14:41:02;6.72;;;3.95;;
68886;SDS011;55925;51.764;6.402;2023-09-08T14:43:28;9.18;;;4.38;;
68886;SDS011;55925;51.764;6.402;2023-09-08T14:45:55;8.07;;;4.63;;
68886;SDS011;55925;51.764;6.402;2023-09-08T14:48:25;8.82;;;4.57;;
68886;SDS011;55925;51.764;6.402;2023-09-08T14:50:52;7.35;;;4.30;;